createdAt,value
2022-12-02T00:02:06.098Z,8.70
2022-12-02T00:05:00.362Z,8.70
2022-12-02T00:07:46.474Z,9.90
2022-12-02T00:10:34.488Z,8.70
2022-12-02T00:13:27.431Z,8.70
2022-12-02T00:16:25.002Z,8.60
2022-12-02T00:19:10.795Z,8.40
2022-12-02T00:21:56.388Z,8.10
2022-12-02T00:24:41.934Z,8.40
2022-12-02T00:27:27.763Z,8.40
2022-12-02T00:30:14.491Z,8.50
2022-12-02T00:33:00.199Z,8.50
2022-12-02T00:35:46.222Z,8.20
2022-12-02T00:38:31.911Z,8.40
2022-12-02T00:41:19.048Z,8.50
2022-12-02T00:44:22.937Z,8.40
2022-12-02T00:47:09.666Z,7.70
2022-12-02T00:49:55.407Z,7.60
2022-12-02T00:52:41.222Z,8.10
2022-12-02T00:55:26.983Z,8.30
2022-12-02T00:58:12.684Z,8.40
2022-12-02T01:00:58.705Z,8.30
2022-12-02T01:03:46.248Z,7.80
2022-12-02T01:06:32.116Z,7.20
2022-12-02T01:09:17.849Z,7.00
2022-12-02T01:12:04.738Z,6.90
2022-12-02T01:14:50.630Z,6.80
2022-12-02T01:17:37.224Z,7.00
2022-12-02T01:20:22.666Z,7.30
2022-12-02T01:23:08.227Z,7.50
2022-12-02T01:25:54.065Z,7.20
2022-12-02T01:28:39.749Z,7.30
2022-12-02T01:31:25.273Z,8.00
2022-12-02T01:34:10.633Z,7.60
2022-12-02T01:36:56.230Z,8.10
2022-12-02T01:39:41.759Z,8.20
2022-12-02T01:42:27.904Z,8.10
2022-12-02T01:45:13.874Z,8.20
2022-12-02T01:48:01.766Z,8.40
2022-12-02T01:50:47.924Z,8.50
2022-12-02T01:53:35.337Z,8.20
2022-12-02T01:56:21.105Z,7.20
2022-12-02T01:59:07.160Z,7.60
2022-12-02T02:01:53.072Z,7.40
2022-12-02T02:04:38.814Z,7.20
2022-12-02T02:07:24.993Z,7.00
2022-12-02T02:10:11.654Z,7.10
2022-12-02T02:12:58.452Z,7.10
2022-12-02T02:15:45.513Z,7.10
2022-12-02T02:18:31.720Z,7.00
2022-12-02T02:21:24.748Z,7.00
2022-12-02T02:24:11.368Z,7.40
2022-12-02T02:26:57.929Z,7.70
2022-12-02T02:29:43.645Z,7.50
2022-12-02T02:32:29.751Z,7.20
2022-12-02T02:35:17.603Z,7.30
2022-12-02T02:38:04.828Z,7.40
2022-12-02T02:40:52.667Z,7.40
2022-12-02T02:43:39.605Z,7.60
2022-12-02T02:46:26.344Z,8.00
2022-12-02T02:49:12.430Z,7.90
2022-12-02T02:51:59.594Z,8.00
2022-12-02T02:54:45.905Z,8.00
2022-12-02T02:57:32.721Z,7.70
2022-12-02T03:00:21.581Z,7.70
2022-12-02T03:03:07.687Z,7.80
2022-12-02T03:05:55.971Z,7.90
2022-12-02T03:08:46.304Z,7.50
2022-12-02T03:11:33.820Z,7.80
2022-12-02T03:14:20.172Z,7.80
2022-12-02T03:17:06.578Z,8.00
2022-12-02T03:19:52.602Z,8.20
2022-12-02T03:22:38.445Z,8.20
2022-12-02T03:25:24.270Z,8.30
2022-12-02T03:28:12.136Z,8.30
2022-12-02T03:30:58.369Z,8.10
2022-12-02T03:33:44.224Z,7.80
2022-12-02T03:36:30.265Z,7.60
2022-12-02T03:39:16.263Z,7.90
2022-12-02T03:42:01.956Z,7.80
2022-12-02T03:44:49.772Z,7.80
2022-12-02T03:47:35.490Z,7.90
2022-12-02T03:50:22.041Z,8.10
2022-12-02T03:53:07.754Z,7.60
2022-12-02T03:55:53.359Z,7.70
2022-12-02T03:58:50.835Z,7.80
2022-12-02T04:01:36.664Z,8.00
2022-12-02T04:04:22.633Z,7.90
2022-12-02T04:07:08.290Z,7.90
2022-12-02T04:09:53.850Z,7.80
2022-12-02T04:12:39.385Z,7.50
2022-12-02T04:15:26.096Z,7.70
2022-12-02T04:18:11.859Z,7.80
2022-12-02T04:20:57.809Z,8.00
2022-12-02T04:23:43.621Z,8.00
2022-12-02T04:26:29.610Z,8.10
2022-12-02T04:29:15.498Z,8.00
2022-12-02T04:32:01.478Z,8.20
2022-12-02T04:34:47.129Z,8.00
2022-12-02T04:37:32.811Z,8.00
2022-12-02T04:40:18.671Z,8.20
2022-12-02T04:43:04.408Z,8.20
2022-12-02T04:45:50.104Z,8.20
2022-12-02T04:48:35.768Z,7.90
2022-12-02T04:51:21.189Z,7.70
2022-12-02T04:54:07.184Z,7.60
2022-12-02T04:56:52.485Z,7.50
2022-12-02T04:59:39.068Z,7.90
2022-12-02T05:02:24.720Z,7.60
2022-12-02T05:05:10.845Z,7.50
2022-12-02T05:07:56.699Z,7.70
2022-12-02T05:10:42.043Z,7.70
2022-12-02T05:13:27.656Z,7.70
2022-12-02T05:16:13.253Z,7.90
2022-12-02T05:18:59.079Z,7.60
2022-12-02T05:21:44.664Z,7.70
2022-12-02T05:24:30.142Z,8.00
2022-12-02T05:27:16.049Z,8.20
2022-12-02T05:30:01.843Z,8.10
2022-12-02T05:32:48.161Z,7.90
2022-12-02T05:35:33.796Z,7.60
2022-12-02T05:38:19.783Z,7.50
2022-12-02T05:41:06.944Z,7.70
2022-12-02T05:43:53.112Z,7.20
2022-12-02T05:46:39.060Z,7.10
2022-12-02T05:49:25.156Z,7.20
2022-12-02T05:52:25.221Z,7.10
2022-12-02T05:55:17.191Z,7.20
2022-12-02T05:58:04.807Z,7.70
2022-12-02T06:01:00.760Z,7.20
2022-12-02T06:03:47.222Z,7.20
2022-12-02T06:06:36.443Z,7.10
2022-12-02T06:09:29.000Z,7.10
2022-12-02T06:12:19.019Z,7.30
2022-12-02T06:15:14.067Z,7.40
2022-12-02T06:17:59.524Z,7.70
2022-12-02T06:21:00.762Z,7.70
2022-12-02T06:23:49.556Z,7.70
2022-12-02T06:26:35.349Z,7.80
2022-12-02T06:29:21.711Z,8.30
2022-12-02T06:32:13.654Z,8.40
2022-12-02T06:34:59.443Z,8.70
2022-12-02T06:37:45.264Z,8.70
2022-12-02T06:40:33.897Z,8.70
2022-12-02T06:43:26.302Z,8.70
2022-12-02T06:46:20.659Z,8.80
2022-12-02T06:49:19.302Z,8.70
2022-12-02T06:52:21.375Z,8.80
2022-12-02T06:55:27.945Z,8.90
2022-12-02T06:58:40.642Z,8.90
2022-12-02T07:01:31.405Z,8.90
2022-12-02T07:04:47.747Z,8.80
2022-12-02T07:07:36.368Z,8.80
2022-12-02T07:10:27.591Z,8.70
2022-12-02T07:13:18.206Z,8.70
2022-12-02T07:16:24.353Z,8.80
2022-12-02T07:19:18.951Z,8.70
2022-12-02T07:22:25.400Z,8.80
2022-12-02T07:25:11.031Z,8.90
2022-12-02T07:27:58.531Z,8.90
2022-12-02T07:30:44.224Z,8.80
2022-12-02T07:33:32.097Z,8.90
2022-12-02T07:36:18.380Z,8.80
2022-12-02T07:39:06.120Z,8.80
2022-12-02T07:41:57.180Z,8.80
2022-12-02T07:44:44.664Z,8.80
2022-12-02T07:47:32.338Z,8.90
2022-12-02T07:50:18.987Z,8.90
2022-12-02T07:53:06.724Z,9.00
2022-12-02T07:55:53.686Z,8.70
2022-12-02T07:59:10.170Z,9.10
2022-12-02T08:01:47.479Z,8.90
2022-12-02T08:04:36.561Z,8.40
2022-12-02T08:07:22.705Z,8.20
2022-12-02T08:10:09.187Z,8.70
2022-12-02T08:12:54.948Z,8.90
2022-12-02T08:15:41.206Z,9.20
2022-12-02T08:18:26.823Z,9.30
2022-12-02T08:21:12.884Z,9.30
2022-12-02T08:23:58.941Z,9.40
2022-12-02T08:26:45.026Z,9.70
2022-12-02T08:29:30.714Z,8.60
2022-12-02T08:32:17.563Z,8.50
2022-12-02T08:35:03.660Z,8.40
2022-12-02T08:37:49.433Z,8.80
2022-12-02T08:40:35.117Z,9.00
2022-12-02T08:43:21.428Z,8.90
2022-12-02T08:46:11.149Z,8.90
2022-12-02T08:48:57.405Z,8.80
2022-12-02T08:51:43.806Z,8.60
2022-12-02T08:54:29.522Z,8.60
2022-12-02T08:57:15.732Z,8.50
2022-12-02T09:00:01.694Z,8.70
2022-12-02T09:02:48.194Z,9.00
2022-12-02T09:05:36.121Z,9.00
2022-12-02T09:08:21.878Z,9.10
2022-12-02T09:11:07.822Z,9.00
2022-12-02T09:13:53.783Z,8.90
2022-12-02T09:16:39.790Z,9.20
2022-12-02T09:19:25.218Z,8.60
2022-12-02T09:22:10.814Z,8.40
2022-12-02T09:24:56.503Z,8.20
2022-12-02T09:27:42.103Z,9.50
2022-12-02T09:30:28.138Z,8.40
2022-12-02T09:33:14.351Z,8.30
2022-12-02T09:35:59.642Z,8.50
2022-12-02T09:38:45.416Z,8.60
2022-12-02T09:41:31.862Z,8.70
2022-12-02T09:44:17.811Z,8.30
2022-12-02T09:47:03.524Z,8.60
2022-12-02T09:49:49.461Z,8.50
2022-12-02T09:52:36.749Z,8.40
2022-12-02T09:55:24.702Z,8.60
2022-12-02T09:58:19.544Z,8.80
2022-12-02T10:01:09.824Z,8.80
2022-12-02T10:03:55.781Z,8.60
2022-12-02T10:06:41.828Z,8.20
2022-12-02T10:09:29.604Z,8.20
2022-12-02T10:12:15.504Z,8.20
2022-12-02T10:15:01.337Z,8.20
2022-12-02T10:17:47.391Z,8.10
2022-12-02T10:20:33.930Z,7.10
2022-12-02T10:23:19.814Z,8.10
2022-12-02T10:26:13.958Z,8.10
2022-12-02T10:29:14.468Z,8.20
2022-12-02T10:32:02.759Z,8.10
2022-12-02T10:35:12.254Z,7.90
2022-12-02T10:37:58.183Z,7.80
2022-12-02T10:40:43.982Z,7.90
2022-12-02T10:43:29.651Z,8.00
2022-12-02T10:46:15.322Z,8.10
2022-12-02T10:49:26.062Z,8.00
2022-12-02T10:52:14.092Z,7.90
2022-12-02T10:55:00.592Z,8.00
2022-12-02T10:57:47.702Z,8.10
2022-12-02T11:00:33.269Z,8.20
2022-12-02T11:03:20.471Z,8.30
2022-12-02T11:06:13.441Z,8.30
2022-12-02T11:09:31.543Z,8.20
2022-12-02T11:12:30.745Z,8.10
2022-12-02T11:22:00.728Z,8.10
2022-12-02T11:28:18.140Z,8.20
2022-12-02T11:31:10.230Z,8.50
2022-12-02T11:34:05.819Z,9.70
2022-12-02T11:37:33.589Z,8.90
2022-12-02T11:40:19.553Z,8.50
2022-12-02T11:44:00.144Z,8.70
2022-12-02T11:46:51.180Z,8.60
2022-12-02T11:49:42.496Z,8.90
2022-12-02T11:52:29.486Z,8.60
2022-12-02T11:55:32.921Z,8.70
2022-12-02T11:58:34.143Z,8.60
2022-12-02T12:01:19.962Z,8.60
2022-12-02T12:04:25.629Z,8.50
2022-12-02T12:07:14.439Z,8.60
2022-12-02T12:10:02.308Z,8.50
2022-12-02T12:13:19.286Z,8.50
2022-12-02T12:16:05.009Z,8.40
2022-12-02T12:18:51.535Z,8.30
2022-12-02T12:21:46.047Z,8.20
2022-12-02T12:24:33.021Z,8.30
2022-12-02T12:27:36.747Z,8.50
2022-12-02T12:30:24.044Z,8.50
2022-12-02T12:33:09.804Z,8.90
2022-12-02T12:35:56.631Z,8.80
2022-12-02T12:38:42.322Z,8.70
2022-12-02T12:41:51.755Z,8.60
2022-12-02T12:44:34.075Z,8.50
2022-12-02T12:47:22.414Z,8.50
2022-12-02T12:50:09.321Z,8.40
2022-12-02T12:52:55.123Z,8.50
2022-12-02T12:55:41.165Z,8.50
2022-12-02T12:58:26.869Z,8.20
2022-12-02T13:01:12.479Z,8.20
2022-12-02T13:03:58.239Z,8.40
2022-12-02T13:06:47.347Z,8.60
2022-12-02T13:09:38.338Z,8.40
2022-12-02T13:12:24.889Z,8.50
2022-12-02T13:15:10.730Z,8.30
2022-12-02T13:17:56.327Z,8.30
2022-12-02T13:20:42.467Z,8.40
2022-12-02T13:23:28.197Z,8.40
2022-12-02T13:26:15.237Z,8.30
2022-12-02T13:29:01.557Z,8.30
2022-12-02T13:31:50.953Z,8.30
2022-12-02T13:34:36.680Z,8.30
2022-12-02T13:37:22.083Z,8.30
2022-12-02T13:40:12.271Z,8.40
2022-12-02T13:42:58.246Z,8.40
2022-12-02T13:45:44.661Z,8.70
2022-12-02T13:48:30.733Z,8.90
2022-12-02T13:51:16.393Z,8.60
2022-12-02T13:54:01.945Z,8.50
2022-12-02T13:56:47.926Z,8.40
2022-12-02T13:59:38.303Z,8.40
2022-12-02T14:02:24.345Z,8.30
2022-12-02T14:05:10.786Z,8.30
2022-12-02T14:07:56.633Z,8.60
2022-12-02T14:10:42.208Z,8.60
2022-12-02T14:13:28.227Z,8.60
2022-12-02T14:16:13.761Z,8.70
2022-12-02T14:18:59.525Z,8.40
2022-12-02T14:21:45.273Z,8.50
2022-12-02T14:24:30.600Z,8.50
2022-12-02T14:27:16.396Z,8.40
2022-12-02T14:30:02.499Z,8.30
2022-12-02T14:32:48.385Z,8.30
2022-12-02T14:35:34.194Z,8.40
2022-12-02T14:38:20.114Z,8.50
2022-12-02T14:41:05.758Z,8.40
2022-12-02T14:44:02.005Z,8.40
2022-12-02T14:46:50.097Z,8.40
2022-12-02T14:49:40.616Z,8.20
2022-12-02T14:52:27.097Z,8.20
2022-12-02T14:55:12.706Z,8.30
2022-12-02T14:57:58.637Z,8.50
2022-12-02T15:00:44.358Z,8.30
2022-12-02T15:03:31.146Z,8.30
2022-12-02T15:06:16.894Z,8.30
2022-12-02T15:09:03.714Z,8.40
2022-12-02T15:11:51.183Z,8.30
2022-12-02T15:14:37.468Z,8.40
2022-12-02T15:17:22.947Z,8.40
2022-12-02T15:20:10.931Z,8.30
2022-12-02T15:22:57.229Z,8.30
2022-12-02T15:25:43.117Z,8.60
2022-12-02T15:28:28.884Z,8.70
2022-12-02T15:31:17.866Z,8.50
2022-12-02T15:34:04.087Z,8.30
2022-12-02T15:36:49.865Z,8.30
2022-12-02T15:39:37.263Z,8.10
2022-12-02T15:42:23.425Z,8.50
2022-12-02T15:45:09.533Z,8.30
2022-12-02T15:47:54.989Z,8.30
2022-12-02T15:50:40.559Z,8.30
2022-12-02T15:53:26.634Z,8.40
2022-12-02T15:56:12.820Z,8.50
2022-12-02T15:58:58.980Z,8.30
2022-12-02T16:01:45.042Z,8.10
2022-12-02T16:04:33.223Z,8.10
2022-12-02T16:07:19.271Z,8.90
2022-12-02T16:10:05.781Z,8.10
2022-12-02T16:12:51.641Z,8.10
2022-12-02T16:15:37.485Z,8.10
2022-12-02T16:18:23.543Z,8.10
2022-12-02T16:21:09.410Z,8.20
2022-12-02T16:23:55.743Z,8.30
2022-12-02T16:26:41.712Z,8.40
2022-12-02T16:29:27.746Z,8.80
2022-12-02T16:32:19.818Z,8.90
2022-12-02T16:35:06.549Z,9.00
2022-12-02T16:37:52.220Z,9.20
2022-12-02T16:40:38.393Z,9.40
2022-12-02T16:43:24.255Z,9.30
2022-12-02T16:46:10.000Z,8.90
2022-12-02T16:48:57.143Z,8.50
2022-12-02T16:51:43.189Z,8.50
2022-12-02T16:54:29.153Z,8.60
2022-12-02T16:57:15.045Z,8.50
2022-12-02T17:00:14.230Z,8.40
2022-12-02T17:03:01.223Z,8.30
2022-12-02T17:05:47.160Z,8.40
2022-12-02T17:08:32.939Z,8.40
2022-12-02T17:11:18.850Z,8.30
2022-12-02T17:14:04.702Z,8.40
2022-12-02T17:16:50.672Z,8.60
2022-12-02T17:19:36.725Z,8.60
2022-12-02T17:22:22.477Z,8.80
2022-12-02T17:25:09.095Z,8.90
2022-12-02T17:27:54.918Z,8.90
2022-12-02T17:30:41.101Z,9.10
2022-12-02T17:33:27.028Z,8.80
2022-12-02T17:36:13.791Z,8.90
2022-12-02T17:38:59.536Z,9.10
2022-12-02T17:41:46.391Z,8.90
2022-12-02T17:44:32.056Z,8.90
2022-12-02T17:47:18.049Z,9.10
2022-12-02T17:50:04.869Z,9.20
2022-12-02T17:52:50.497Z,9.10
2022-12-02T17:55:37.096Z,8.90
2022-12-02T17:58:23.038Z,8.70
2022-12-02T18:01:12.098Z,8.90
2022-12-02T18:03:58.154Z,8.80
2022-12-02T18:06:43.682Z,8.80
2022-12-02T18:09:29.320Z,8.80
2022-12-02T18:12:15.467Z,8.90
2022-12-02T18:15:01.569Z,8.60
2022-12-02T18:17:47.555Z,8.40
2022-12-02T18:20:33.515Z,8.40
2022-12-02T18:23:22.510Z,8.60
2022-12-02T18:26:11.507Z,8.80
2022-12-02T18:28:57.551Z,9.00
2022-12-02T18:31:43.437Z,9.10
2022-12-02T18:34:29.287Z,9.10
2022-12-02T18:37:15.532Z,8.60
2022-12-02T18:40:01.637Z,8.60
2022-12-02T18:42:47.588Z,8.60
2022-12-02T18:45:33.335Z,8.70
2022-12-02T18:48:19.317Z,8.60
2022-12-02T18:51:05.167Z,8.90
2022-12-02T18:53:50.598Z,8.60
2022-12-02T18:56:36.271Z,8.60
2022-12-02T18:59:21.870Z,8.80
2022-12-02T19:02:08.899Z,8.70
2022-12-02T19:04:55.099Z,8.70
2022-12-02T19:07:41.095Z,8.80
2022-12-02T19:10:27.717Z,9.10
2022-12-02T19:13:15.827Z,9.20
2022-12-02T19:16:01.711Z,9.20
2022-12-02T19:18:50.364Z,9.20
2022-12-02T19:21:36.217Z,8.90
2022-12-02T19:24:22.056Z,8.80
2022-12-02T19:27:07.783Z,8.60
2022-12-02T19:29:53.826Z,8.80
2022-12-02T19:32:40.207Z,8.80
2022-12-02T19:35:25.736Z,8.80
2022-12-02T19:38:15.087Z,8.70
2022-12-02T19:41:01.631Z,8.60
2022-12-02T19:43:47.133Z,8.70
2022-12-02T19:46:33.660Z,8.60
2022-12-02T19:49:19.532Z,8.30
2022-12-02T19:52:05.895Z,8.30
2022-12-02T19:54:52.125Z,8.40
2022-12-02T19:57:38.138Z,8.90
2022-12-02T20:00:24.365Z,8.70
2022-12-02T20:03:11.193Z,8.90
2022-12-02T20:06:00.554Z,9.30
2022-12-02T20:08:46.479Z,9.10
2022-12-02T20:11:32.344Z,9.10
2022-12-02T20:14:18.385Z,9.10
2022-12-02T20:17:04.242Z,9.20
2022-12-02T20:19:50.013Z,9.20
2022-12-02T20:22:36.221Z,9.30
2022-12-02T20:25:22.298Z,9.10
2022-12-02T20:28:08.450Z,9.10
2022-12-02T20:30:54.199Z,8.80
2022-12-02T20:33:39.921Z,8.80
2022-12-02T20:36:25.713Z,8.80
2022-12-02T20:39:13.491Z,9.00
2022-12-02T20:41:59.653Z,9.60
2022-12-02T20:44:50.725Z,10.00
2022-12-02T20:47:38.611Z,10.20
2022-12-02T20:50:25.077Z,10.40
2022-12-02T20:53:11.018Z,10.40
2022-12-02T20:55:57.091Z,10.40
2022-12-02T20:58:44.406Z,10.50
2022-12-02T21:01:31.073Z,10.50
2022-12-02T21:04:17.010Z,10.40
2022-12-02T21:07:07.745Z,10.40
2022-12-02T21:09:56.338Z,10.00
2022-12-02T21:12:41.961Z,9.60
2022-12-02T21:15:27.781Z,9.30
2022-12-02T21:18:13.354Z,9.10
2022-12-02T21:20:59.252Z,9.20
2022-12-02T21:23:45.910Z,9.10
2022-12-02T21:26:32.178Z,9.10
2022-12-02T21:29:17.848Z,9.20
2022-12-02T21:32:03.727Z,9.20
2022-12-02T21:34:49.906Z,9.30
2022-12-02T21:37:35.734Z,9.30
2022-12-02T21:40:21.557Z,9.70
2022-12-02T21:43:09.652Z,9.90
2022-12-02T21:46:00.603Z,9.80
2022-12-02T21:48:46.259Z,9.80
2022-12-02T21:51:31.894Z,9.50
2022-12-02T21:54:17.657Z,9.40
2022-12-02T21:57:04.320Z,9.70
2022-12-02T21:59:50.222Z,9.80
2022-12-02T22:02:36.025Z,9.50
2022-12-02T22:05:21.855Z,9.30
2022-12-02T22:08:07.482Z,9.40
2022-12-02T22:10:53.928Z,9.00
2022-12-02T22:13:39.790Z,9.00
2022-12-02T22:16:25.831Z,8.90
2022-12-02T22:19:15.007Z,8.90
2022-12-02T22:22:01.662Z,9.00
2022-12-02T22:24:47.347Z,9.30
2022-12-02T22:27:32.929Z,9.30
2022-12-02T22:30:18.905Z,9.40
2022-12-02T22:33:04.550Z,9.50
2022-12-02T22:35:50.473Z,9.20
2022-12-02T22:38:36.531Z,9.30
2022-12-02T22:41:22.508Z,9.50
2022-12-02T22:44:08.511Z,9.80
2022-12-02T22:46:54.290Z,9.80
2022-12-02T22:49:46.221Z,9.80
2022-12-02T22:58:59.411Z,9.50
2022-12-02T23:01:45.254Z,9.40
2022-12-02T23:04:31.548Z,9.60
2022-12-02T23:07:17.553Z,9.70
2022-12-02T23:10:03.213Z,9.70
2022-12-02T23:12:48.828Z,10.40
2022-12-02T23:15:37.303Z,9.80
2022-12-02T23:18:23.761Z,9.70
2022-12-02T23:21:09.575Z,8.90
2022-12-02T23:23:55.114Z,8.90
2022-12-02T23:26:42.159Z,9.10
2022-12-02T23:29:28.200Z,8.70
2022-12-02T23:32:15.268Z,8.70
2022-12-02T23:35:01.280Z,8.70
2022-12-02T23:37:46.737Z,8.50
2022-12-02T23:40:32.358Z,8.60
2022-12-02T23:43:18.999Z,8.40
2022-12-02T23:46:05.270Z,8.50
2022-12-02T23:48:51.209Z,8.00
2022-12-02T23:51:37.103Z,7.80
2022-12-02T23:54:22.938Z,7.60
2022-12-02T23:57:08.808Z,7.50
2022-12-02T23:59:54.569Z,7.40
